Time;durP1;ratioP1;P1;durP2;ratioP2;P2;SDS_P1;SDS_P2;PMS_P1;PMS_P2;Temp;Humidity;BMP_temperature;BMP_pressure;BME280_temperature;BME280_humidity;BME280_pressure;Samples;Min_cycle;Max_cycle;Signal;HPM_P1;HPM_P2
2022/10/20 00:01:52;;;;;;;2.30;1.07;;;;;;;4.56;79.49;99527.44;1793443;80;21017;-79
2022/10/20 00:04:18;;;;;;;0.82;0.62;;;;;;;4.57;79.89;99525.14;1795816;78;21524;-80
2022/10/20 00:06:45;;;;;;;1.40;0.90;;;;;;;4.65;80.21;99527.92;1802838;78;21745;-79
2022/10/20 00:09:11;;;;;;;1.27;0.88;;;;;;;4.62;80.52;99527.39;1804730;78;21098;-81
2022/10/20 00:11:38;;;;;;;1.10;0.75;;;;;;;4.55;80.83;99532.34;1791940;78;21033;-76
2022/10/20 00:14:05;;;;;;;1.42;1.25;;;;;;;4.45;80.86;99537.58;1793154;78;21024;-76
2022/10/20 00:17:37;;;;;;;1.27;0.80;;;;;;;4.42;81.63;99544.89;1870722;75;24260;-79
2022/10/20 00:20:05;;;;;;;3.15;1.20;;;;;;;4.43;81.53;99543.45;1849544;77;21029;-79
2022/10/20 00:22:33;;;;;;;2.27;1.40;;;;;;;4.50;81.79;99538.02;1846585;77;20961;-79
2022/10/20 00:24:59;;;;;;;4.30;1.30;;;;;;;4.42;82.00;99541.78;1820328;77;20963;-78
2022/10/20 00:27:25;;;;;;;1.20;1.10;;;;;;;4.34;82.14;99546.38;1824016;78;21664;-78
2022/10/20 00:29:52;;;;;;;2.15;1.00;;;;;;;4.27;82.10;99547.91;1833416;77;21559;-79
2022/10/20 00:32:18;;;;;;;1.60;1.10;;;;;;;4.28;82.02;99547.41;1825613;77;21072;-80
2022/10/20 00:34:45;;;;;;;1.60;1.10;;;;;;;4.38;81.80;99546.13;1817424;77;21214;-80
2022/10/20 00:37:12;;;;;;;1.37;0.93;;;;;;;4.36;81.63;99547.58;1838427;77;21059;-80
2022/10/20 00:39:38;;;;;;;2.08;1.12;;;;;;;4.28;81.70;99550.04;1842086;77;20927;-80
2022/10/20 00:42:05;;;;;;;2.67;1.20;;;;;;;4.24;81.63;99544.70;1830858;77;21520;-80
2022/10/20 00:44:52;;;;;;;3.67;1.07;;;;;;;4.19;81.72;99553.45;1846784;75;22062;-80
2022/10/20 00:47:43;;;;;;;1.67;0.95;;;;;;;4.21;81.53;99556.33;1839233;77;21092;-79
2022/10/20 00:50:20;;;;;;;0.90;0.80;;;;;;;4.29;81.27;99555.17;1849785;77;21025;-82
2022/10/20 00:52:47;;;;;;;1.40;1.00;;;;;;;4.24;81.50;99556.53;1833262;77;21002;-81
2022/10/20 00:55:22;;;;;;;3.02;1.32;;;;;;;4.16;81.56;99557.19;1820695;76;21095;-79
2022/10/20 00:57:49;;;;;;;4.33;2.62;;;;;;;4.11;81.77;99560.69;1823492;77;21504;-81
2022/10/20 01:00:16;;;;;;;2.80;1.65;;;;;;;4.14;81.41;99561.75;1833132;77;21756;-78
2022/10/20 01:02:43;;;;;;;4.33;2.30;;;;;;;4.25;81.21;99560.81;1855355;77;20966;-77
2022/10/20 01:05:10;;;;;;;6.05;3.37;;;;;;;4.26;81.10;99562.49;1842692;75;21002;-78
2022/10/20 01:07:37;;;;;;;5.33;2.75;;;;;;;4.22;80.83;99554.52;1853531;77;21032;-80
2022/10/20 01:10:05;;;;;;;9.53;5.30;;;;;;;4.20;80.85;99560.39;1845945;77;21021;-81
2022/10/20 01:12:53;;;;;;;5.47;2.65;;;;;;;4.18;80.71;99562.33;1828218;77;21009;-77
2022/10/20 01:15:52;;;;;;;2.60;2.00;;;;;;;4.28;80.65;99565.82;1819807;77;21056;-79
2022/10/20 01:18:47;;;;;;;2.95;1.47;;;;;;;4.36;80.34;99563.84;1835752;77;21020;-78
2022/10/20 01:21:27;;;;;;;2.60;1.20;;;;;;;4.32;80.63;99561.95;1838171;76;20994;-77
2022/10/20 01:24:05;;;;;;;5.92;1.87;;;;;;;4.31;80.01;99559.00;1841440;77;21531;-78
2022/10/20 01:27:19;;;;;;;1.67;1.10;;;;;;;4.25;80.08;99559.50;1810358;78;21143;-80
2022/10/20 01:30:06;;;;;;;4.30;2.58;;;;;;;4.24;79.70;99553.91;1838042;77;21029;-81
2022/10/20 01:33:10;;;;;;;4.90;1.27;;;;;;;4.28;79.26;99552.67;1842430;77;21646;-78
2022/10/20 01:36:05;;;;;;;1.85;1.07;;;;;;;4.16;79.35;99566.88;1816666;77;21013;-79
2022/10/20 01:38:49;;;;;;;3.33;1.17;;;;;;;4.01;79.67;99565.90;1841577;75;21064;-79
2022/10/20 01:41:32;;;;;;;1.35;0.80;;;;;;;3.94;79.84;99564.77;1846830;77;21273;-77
2022/10/20 01:44:05;;;;;;;1.00;0.90;;;;;;;3.98;80.06;99570.12;1821636;77;21493;-79
2022/10/20 01:46:31;;;;;;;2.37;1.02;;;;;;;4.02;80.24;99569.34;1847216;77;21005;-80
2022/10/20 01:48:59;;;;;;;1.47;1.20;;;;;;;4.02;80.24;99569.34;1826702;77;20963;-79
2022/10/20 01:51:26;;;;;;;2.33;0.90;;;;;;;4.03;80.49;99581.55;1832237;75;21021;-79
2022/10/20 01:53:53;;;;;;;1.90;0.85;;;;;;;4.05;80.51;99580.93;1825454;75;21625;-80
2022/10/20 01:56:31;;;;;;;2.55;1.00;;;;;;;4.07;80.35;99589.03;1856700;77;21060;-80
2022/10/20 01:59:36;;;;;;;1.72;0.80;;;;;;;4.14;80.16;99584.92;1847480;77;21005;-78
2022/10/20 02:02:14;;;;;;;2.12;1.10;;;;;;;4.31;79.74;99587.92;1845446;77;20968;-81
2022/10/20 02:05:14;;;;;;;2.00;1.37;;;;;;;4.35;79.97;99586.69;1824472;75;20991;-77
2022/10/20 02:07:40;;;;;;;2.45;1.20;;;;;;;4.37;79.42;99585.25;1851502;77;21592;-80
2022/10/20 02:10:27;;;;;;;2.45;1.30;;;;;;;4.32;78.96;99590.40;1847850;77;21553;-80
2022/10/20 02:12:59;;;;;;;1.57;1.10;;;;;;;4.29;78.91;99591.17;1845340;77;20995;-83
2022/10/20 02:15:27;;;;;;;2.55;1.30;;;;;;;4.38;78.60;99598.73;1835781;77;21005;-81
2022/10/20 02:18:00;;;;;;;1.42;1.07;;;;;;;4.49;78.39;99598.65;1834678;77;21125;-78
2022/10/20 02:20:28;;;;;;;2.42;1.12;;;;;;;4.50;78.39;99596.35;1840140;77;21183;-78
2022/10/20 02:22:56;;;;;;;2.22;1.20;;;;;;;4.50;78.33;99602.93;1816188;77;21002;-77
2022/10/20 02:25:23;;;;;;;1.62;1.02;;;;;;;4.47;78.47;99605.35;1823493;77;21477;-78
2022/10/20 02:27:51;;;;;;;2.90;1.35;;;;;;;4.44;78.49;99600.84;1815354;77;21013;-79
2022/10/20 02:30:18;;;;;;;4.35;0.93;;;;;;;4.47;78.79;99604.53;1828414;77;21540;-76
2022/10/20 02:32:48;;;;;;;4.67;0.90;;;;;;;4.59;78.73;99606.09;1814946;77;21564;-76
2022/10/20 02:35:19;;;;;;;1.10;0.80;;;;;;;4.62;78.75;99604.52;1818359;76;21019;-77
2022/10/20 02:37:45;;;;;;;2.08;1.00;;;;;;;4.59;78.86;99600.00;1813073;77;21014;-78
2022/10/20 02:40:13;;;;;;;5.75;1.37;;;;;;;4.56;78.88;99610.31;1817036;77;21022;-78
2022/10/20 02:42:42;;;;;;;1.40;0.90;;;;;;;4.53;78.90;99603.99;1830910;77;21228;-80
2022/10/20 02:45:09;;;;;;;2.33;0.90;;;;;;;4.50;78.84;99610.82;1835524;76;21543;-78
2022/10/20 02:47:37;;;;;;;2.35;0.88;;;;;;;4.55;78.73;99606.50;1821762;77;22311;-77
2022/10/20 02:50:05;;;;;;;1.60;1.10;;;;;;;4.64;78.60;99605.70;1841623;76;21001;-78
2022/10/20 02:52:31;;;;;;;1.70;1.05;;;;;;;4.63;78.36;99611.92;1836583;77;21010;-76
2022/10/20 02:54:58;;;;;;;1.32;0.80;;;;;;;4.60;78.60;99604.31;1824126;77;20947;-81
2022/10/20 02:57:25;;;;;;;1.30;0.78;;;;;;;4.54;78.42;99613.56;1824865;77;21277;-80
2022/10/20 02:59:52;;;;;;;1.65;1.15;;;;;;;4.50;78.53;99614.77;1812911;79;21042;-79
2022/10/20 03:02:18;;;;;;;1.92;0.90;;;;;;;4.53;78.77;99619.28;1829774;77;21588;-80
2022/10/20 03:04:47;;;;;;;1.25;0.85;;;;;;;4.67;78.22;99621.21;1826173;77;21476;-78
2022/10/20 03:07:13;;;;;;;2.02;1.00;;;;;;;4.64;78.11;99616.23;1837522;77;21002;-78
2022/10/20 03:09:43;;;;;;;3.37;1.05;;;;;;;4.59;78.24;99618.42;1831653;77;22035;-79
2022/10/20 03:12:09;;;;;;;1.15;0.70;;;;;;;4.57;78.36;99614.59;1816077;77;21118;-77
2022/10/20 03:14:36;;;;;;;3.35;1.02;;;;;;;4.53;78.05;99620.60;1835203;77;21080;-77
2022/10/20 03:17:04;;;;;;;0.85;0.85;;;;;;;4.45;78.17;99622.24;1844743;77;21006;-78
2022/10/20 03:19:32;;;;;;;3.12;1.07;;;;;;;4.45;78.25;99623.06;1823291;77;21034;-79
2022/10/20 03:21:59;;;;;;;2.22;1.22;;;;;;;4.53;77.92;99617.97;1819199;76;21084;-79
2022/10/20 03:24:25;;;;;;;0.98;0.82;;;;;;;4.46;77.97;99616.86;1835555;77;21046;-78
2022/10/20 03:26:52;;;;;;;3.30;1.15;;;;;;;4.40;77.93;99612.59;1815315;77;21034;-75
2022/10/20 03:29:19;;;;;;;3.22;2.20;;;;;;;4.31;77.90;99615.54;1805087;77;20919;-76
2022/10/20 03:31:45;;;;;;;2.77;1.75;;;;;;;4.24;77.97;99614.38;1805765;77;21056;-74
2022/10/20 03:34:13;;;;;;;5.20;1.85;;;;;;;4.21;78.26;99614.63;1833429;77;21017;-77
2022/10/20 03:36:40;;;;;;;2.37;1.20;;;;;;;4.23;78.16;99618.82;1827410;77;21073;-80
2022/10/20 03:39:07;;;;;;;3.47;1.43;;;;;;;4.33;78.00;99614.92;1833706;77;20985;-76
2022/10/20 03:41:33;;;;;;;4.45;1.30;;;;;;;4.33;78.06;99620.19;1825856;77;21541;-78
2022/10/20 03:44:00;;;;;;;2.75;1.20;;;;;;;4.31;78.11;99636.58;1824399;77;21557;-78
2022/10/20 03:46:26;;;;;;;2.80;1.65;;;;;;;4.20;78.01;99619.07;1804160;77;21080;-78
2022/10/20 03:48:53;;;;;;;3.98;1.15;;;;;;;4.13;78.29;99621.40;1836595;77;21033;-78
2022/10/20 03:51:20;;;;;;;3.08;1.50;;;;;;;4.11;78.42;99617.21;1806819;77;21077;-76
2022/10/20 03:53:47;;;;;;;3.58;2.15;;;;;;;4.18;78.28;99624.12;1837009;77;21546;-78
2022/10/20 03:56:17;;;;;;;2.37;1.50;;;;;;;4.15;78.52;99623.88;1842503;77;21065;-77
2022/10/20 03:58:44;;;;;;;1.60;0.90;;;;;;;4.11;78.70;99622.47;1828663;77;21223;-74
2022/10/20 04:01:15;;;;;;;5.47;1.10;;;;;;;4.05;78.90;99621.67;1844075;77;21076;-77
2022/10/20 04:03:43;;;;;;;1.70;1.23;;;;;;;4.03;78.72;99619.17;1809355;77;21048;-77
2022/10/20 04:06:12;;;;;;;2.90;0.90;;;;;;;4.02;79.06;99617.98;1833061;77;21085;-77
2022/10/20 04:08:39;;;;;;;4.00;1.37;;;;;;;4.12;78.73;99618.89;1827557;77;21045;-79
2022/10/20 04:11:06;;;;;;;2.65;1.45;;;;;;;4.27;78.12;99625.97;1817468;77;21226;-79
2022/10/20 04:13:32;;;;;;;3.90;1.40;;;;;;;4.24;78.20;99617.02;1840925;77;21069;-80
2022/10/20 04:16:00;;;;;;;2.83;1.47;;;;;;;4.20;78.10;99624.33;1794539;77;21517;-77
2022/10/20 04:18:27;;;;;;;1.77;1.12;;;;;;;4.16;78.26;99619.47;1814649;77;21577;-80
2022/10/20 04:20:53;;;;;;;2.37;1.20;;;;;;;4.09;78.50;99621.28;1809242;78;21085;-79
2022/10/20 04:23:20;;;;;;;1.70;1.40;;;;;;;4.06;78.68;99625.50;1827073;78;21535;-79
2022/10/20 04:25:47;;;;;;;2.85;1.20;;;;;;;4.14;78.37;99622.22;1829317;78;20983;-78
2022/10/20 04:28:15;;;;;;;1.22;0.93;;;;;;;4.13;78.37;99625.80;1835772;78;20997;-78
2022/10/20 04:30:42;;;;;;;1.30;1.20;;;;;;;4.07;78.63;99625.01;1836631;78;21065;-79
2022/10/20 04:33:10;;;;;;;2.05;1.30;;;;;;;4.00;78.96;99633.91;1825852;78;21137;-80
2022/10/20 04:35:37;;;;;;;3.92;0.93;;;;;;;3.99;78.95;99626.14;1807232;78;21244;-80
2022/10/20 04:38:03;;;;;;;1.50;0.90;;;;;;;3.95;78.71;99629.50;1809017;78;21010;-80
2022/10/20 04:40:31;;;;;;;2.80;1.15;;;;;;;4.02;78.68;99635.06;1822652;78;21013;-78
2022/10/20 04:43:00;;;;;;;1.60;0.98;;;;;;;4.06;78.78;99629.93;1827341;78;21061;-80
2022/10/20 04:45:27;;;;;;;1.67;1.00;;;;;;;4.03;78.91;99634.12;1829970;78;21477;-78
2022/10/20 04:47:54;;;;;;;2.40;1.37;;;;;;;3.97;78.51;99640.72;1816341;78;21766;-78
2022/10/20 04:50:20;;;;;;;3.40;1.50;;;;;;;3.94;78.87;99641.00;1809577;78;21149;-78
2022/10/20 04:52:50;;;;;;;1.65;1.00;;;;;;;3.93;78.91;99641.94;1821397;78;21225;-77
2022/10/20 04:55:19;;;;;;;1.50;0.95;;;;;;;4.03;78.84;99648.09;1836225;78;21030;-79
2022/10/20 04:57:45;;;;;;;1.98;1.00;;;;;;;4.20;78.54;99656.38;1824934;78;21034;-77
2022/10/20 05:00:13;;;;;;;2.65;1.00;;;;;;;4.24;78.26;99653.83;1823958;78;21086;-79
2022/10/20 05:02:39;;;;;;;3.10;1.07;;;;;;;4.19;78.26;99663.44;1827072;78;20962;-77
2022/10/20 05:05:06;;;;;;;1.67;1.25;;;;;;;4.14;78.95;99658.55;1812213;78;21067;-78
2022/10/20 05:07:34;;;;;;;1.37;1.10;;;;;;;4.14;78.65;99663.80;1827465;78;21018;-79
2022/10/20 05:10:00;;;;;;;2.42;1.10;;;;;;;4.14;78.45;99673.00;1813888;78;21022;-79
2022/10/20 05:12:29;;;;;;;3.92;1.40;;;;;;;4.24;78.36;99666.98;1828803;78;21427;-80
2022/10/20 05:14:55;;;;;;;1.57;1.10;;;;;;;4.29;78.27;99672.70;1832449;78;20955;-80
2022/10/20 05:17:22;;;;;;;3.25;1.25;;;;;;;4.25;78.39;99672.57;1831509;78;21029;-80
2022/10/20 05:19:49;;;;;;;2.77;1.12;;;;;;;4.26;78.79;99671.14;1837004;77;21244;-81
2022/10/20 05:22:16;;;;;;;3.25;1.55;;;;;;;4.27;78.88;99674.13;1845248;76;21037;-81
2022/10/20 05:24:44;;;;;;;8.55;1.12;;;;;;;4.27;78.67;99675.94;1828483;77;21241;-80
2022/10/20 05:27:11;;;;;;;0.85;0.82;;;;;;;4.33;78.64;99679.36;1833482;77;21462;-82
2022/10/20 05:29:37;;;;;;;2.83;1.10;;;;;;;4.46;78.57;99683.94;1840904;77;21014;-79
2022/10/20 05:32:03;;;;;;;1.70;0.90;;;;;;;4.45;79.11;99691.95;1819565;77;21001;-82
2022/10/20 05:34:30;;;;;;;1.52;1.00;;;;;;;4.41;79.14;99686.60;1822254;76;21057;-82
2022/10/20 05:36:56;;;;;;;3.75;1.45;;;;;;;4.36;79.46;99686.97;1806593;77;21955;-82
2022/10/20 05:39:23;;;;;;;1.00;0.80;;;;;;;4.34;79.45;99686.27;1842156;75;20931;-84
2022/10/20 05:41:49;;;;;;;1.70;1.10;;;;;;;4.35;79.36;99690.58;1849210;76;20982;-84
2022/10/20 05:44:16;;;;;;;1.05;0.98;;;;;;;4.46;79.77;99695.77;1850191;77;20907;-80
2022/10/20 05:46:42;;;;;;;2.67;1.75;;;;;;;4.48;79.68;99701.73;1844156;76;20923;-83
2022/10/20 05:49:13;;;;;;;1.92;1.15;;;;;;;4.45;79.82;99700.67;1847296;77;21066;-83
2022/10/20 05:51:40;;;;;;;1.92;1.20;;;;;;;4.41;80.11;99698.44;1846041;77;21025;-84
2022/10/20 05:54:09;;;;;;;1.25;0.88;;;;;;;4.39;80.33;99703.00;1831415;77;21092;-84
2022/10/20 05:56:36;;;;;;;1.35;0.93;;;;;;;4.42;80.28;99704.86;1826978;77;21129;-84
2022/10/20 05:59:03;;;;;;;2.67;1.00;;;;;;;4.54;80.15;99716.17;1772327;79;21018;-85
2022/10/20 06:01:39;;;;;;;2.83;1.40;;;;;;;4.53;80.30;99714.48;1772167;78;21248;-78
2022/10/20 06:03:59;;;;;;;2.62;1.27;;;;;;;4.47;80.23;99722.41;1769661;79;21034;-75
2022/10/20 06:06:28;;;;;;;2.15;1.40;;;;;;;4.42;80.52;99726.39;1773255;80;21074;-76
2022/10/20 06:08:58;;;;;;;2.35;1.32;;;;;;;4.36;80.59;99721.66;1773325;80;21011;-77
2022/10/20 06:11:26;;;;;;;1.40;0.90;;;;;;;4.27;80.93;99717.52;1839372;77;21038;-77
2022/10/20 06:13:53;;;;;;;2.25;1.00;;;;;;;4.33;80.91;99724.07;1832266;77;21463;-75
2022/10/20 06:16:23;;;;;;;2.83;1.20;;;;;;;4.43;80.93;99730.22;1790307;78;21037;-75
2022/10/20 06:18:52;;;;;;;2.10;1.17;;;;;;;4.39;81.25;99732.75;1835368;77;21255;-77
2022/10/20 06:21:21;;;;;;;2.50;1.25;;;;;;;4.39;81.37;99731.94;1829111;76;21066;-78
2022/10/20 06:23:48;;;;;;;1.87;1.55;;;;;;;4.36;81.27;99732.17;1843974;77;21088;-75
2022/10/20 06:26:22;;;;;;;2.25;1.42;;;;;;;4.29;81.39;99728.75;1838943;77;21081;-76
2022/10/20 06:28:53;;;;;;;1.45;1.30;;;;;;;4.31;81.31;99732.58;1840096;76;20986;-75
2022/10/20 06:31:25;;;;;;;1.90;1.40;;;;;;;4.42;81.23;99735.11;1832346;77;20961;-76
2022/10/20 06:33:52;;;;;;;2.55;1.55;;;;;;;4.41;81.63;99738.72;1848599;77;21036;-79
2022/10/20 06:36:20;;;;;;;2.10;1.87;;;;;;;4.43;81.83;99734.16;1841123;76;21005;-78
2022/10/20 06:38:48;;;;;;;2.55;1.70;;;;;;;4.47;81.67;99736.06;1822302;77;21142;-76
2022/10/20 06:41:16;;;;;;;1.62;1.10;;;;;;;4.52;81.53;99743.92;1820576;77;21013;-77
2022/10/20 06:43:44;;;;;;;2.42;1.50;;;;;;;4.68;81.32;99746.08;1829359;77;21045;-78
2022/10/20 06:46:13;;;;;;;1.60;1.32;;;;;;;4.71;81.22;99746.30;1840387;77;21041;-79
2022/10/20 06:48:41;;;;;;;1.42;1.30;;;;;;;4.67;81.07;99754.09;1827001;77;20998;-77
2022/10/20 06:54:13;;;;;;;1.85;1.37;;;;;;;4.63;81.08;99751.38;1782919;76;20998;-78
2022/10/20 06:56:40;;;;;;;1.95;1.45;;;;;;;4.67;80.73;99762.00;1842589;76;21022;-79
2022/10/20 06:59:08;;;;;;;1.67;1.30;;;;;;;4.71;80.92;99758.13;1842235;77;21025;-80
2022/10/20 07:01:36;;;;;;;2.37;1.77;;;;;;;4.69;81.04;99757.44;1838155;76;21041;-79
2022/10/20 07:04:05;;;;;;;1.87;1.20;;;;;;;4.64;81.13;99766.22;1824062;77;21273;-77
2022/10/20 07:06:36;;;;;;;1.32;1.20;;;;;;;4.60;81.28;99772.70;1844137;77;20982;-77
2022/10/20 07:09:04;;;;;;;3.20;1.55;;;;;;;4.64;81.37;99768.85;1842553;76;21069;-78
2022/10/20 07:11:33;;;;;;;2.12;1.45;;;;;;;4.81;81.29;99766.94;1822960;77;20986;-77
2022/10/20 07:14:00;;;;;;;2.92;1.42;;;;;;;4.86;81.07;99769.17;1839768;77;21131;-78
2022/10/20 07:16:29;;;;;;;1.55;1.45;;;;;;;4.85;81.13;99772.78;1818122;76;21322;-80
2022/10/20 07:18:56;;;;;;;1.52;1.27;;;;;;;4.83;81.00;99772.91;1824156;77;20973;-77
2022/10/20 07:21:29;;;;;;;2.40;1.57;;;;;;;4.77;80.88;99772.12;1838787;77;21022;-78
2022/10/20 07:23:56;;;;;;;2.12;1.50;;;;;;;4.77;81.00;99773.44;1829624;77;21071;-77
2022/10/20 07:26:25;;;;;;;2.80;1.60;;;;;;;4.86;80.91;99781.84;1830210;77;21077;-78
2022/10/20 07:28:54;;;;;;;2.60;1.32;;;;;;;4.86;81.05;99784.47;1832912;76;21456;-78
2022/10/20 07:31:37;;;;;;;3.33;1.77;;;;;;;4.81;81.16;99776.16;1839728;77;21545;-78
2022/10/20 07:34:05;;;;;;;2.02;1.50;;;;;;;4.73;81.36;99784.70;1776417;79;21029;-79
2022/10/20 07:36:32;;;;;;;1.55;1.35;;;;;;;4.68;81.46;99787.36;1758023;81;21030;-79
2022/10/20 07:39:00;;;;;;;3.80;1.57;;;;;;;4.75;81.41;99786.34;1751027;81;21109;-77
2022/10/20 07:41:27;;;;;;;1.82;1.35;;;;;;;4.83;80.95;99793.96;1758564;81;21207;-78
2022/10/20 07:43:54;;;;;;;1.85;1.40;;;;;;;4.80;81.45;99785.48;1753253;81;21052;-75
2022/10/20 07:46:21;;;;;;;1.82;1.60;;;;;;;4.80;81.49;99787.63;1764131;79;21244;-77
2022/10/20 07:48:48;;;;;;;2.17;1.80;;;;;;;4.82;81.61;99797.55;1767148;80;21077;-77
2022/10/20 07:51:27;;;;;;;2.47;1.20;;;;;;;4.82;81.57;99798.86;1765448;81;21085;-77
2022/10/20 07:54:06;;;;;;;2.02;1.75;;;;;;;4.92;81.30;99802.41;1746889;81;21148;-76
2022/10/20 07:56:36;;;;;;;2.83;2.58;;;;;;;5.01;81.30;99803.89;1768274;79;21006;-77
2022/10/20 07:59:06;;;;;;;2.77;2.20;;;;;;;4.98;81.28;99809.41;1754206;81;21015;-76
2022/10/20 08:01:32;;;;;;;3.62;2.10;;;;;;;4.95;81.44;99802.61;1768089;80;20979;-77
2022/10/20 08:03:59;;;;;;;3.15;2.50;;;;;;;4.96;81.44;99808.22;1751581;81;21081;-78
2022/10/20 08:06:26;;;;;;;2.30;1.75;;;;;;;5.00;81.23;99804.84;1763846;81;21234;-76
2022/10/20 08:08:53;;;;;;;4.85;2.98;;;;;;;5.10;81.01;99808.38;1755393;81;21031;-76
2022/10/20 08:11:19;;;;;;;3.00;2.12;;;;;;;5.10;81.25;99803.11;1755518;79;21561;-78
2022/10/20 08:13:46;;;;;;;4.25;2.45;;;;;;;5.06;81.09;99810.44;1750437;80;21061;-77
2022/10/20 08:16:14;;;;;;;4.55;2.90;;;;;;;5.03;81.02;99813.32;1755471;79;21049;-74
2022/10/20 08:18:43;;;;;;;3.70;2.77;;;;;;;5.03;81.04;99810.69;1749112;79;21609;-74
2022/10/20 08:21:24;;;;;;;4.97;1.85;;;;;;;5.09;80.89;99816.74;1752724;81;21069;-79
2022/10/20 08:24:01;;;;;;;3.47;1.87;;;;;;;5.22;80.32;99816.53;1774840;79;21078;-78
2022/10/20 08:26:27;;;;;;;4.00;2.08;;;;;;;5.18;80.23;99821.72;1785449;80;21054;-76
2022/10/20 08:28:54;;;;;;;3.15;1.87;;;;;;;5.10;80.43;99819.74;1779096;78;21073;-77
2022/10/20 08:31:22;;;;;;;1.82;1.55;;;;;;;5.06;80.59;99835.45;1777061;78;21643;-77
2022/10/20 08:33:49;;;;;;;2.27;1.80;;;;;;;5.05;80.44;99831.14;1831193;76;21013;-78
2022/10/20 08:36:15;;;;;;;2.70;1.82;;;;;;;5.15;80.54;99835.14;1816523;77;22117;-73
2022/10/20 08:38:43;;;;;;;2.90;2.10;;;;;;;5.14;80.68;99842.70;1833711;76;20981;-74
2022/10/20 08:41:25;;;;;;;3.12;2.55;;;;;;;5.11;81.06;99839.83;1836832;76;21116;-73
2022/10/20 08:43:54;;;;;;;2.55;2.02;;;;;;;5.08;81.22;99837.94;1829062;77;21180;-73
2022/10/20 08:46:26;;;;;;;4.30;1.98;;;;;;;5.07;81.47;99839.74;1833747;77;21028;-73
2022/10/20 08:48:52;;;;;;;2.30;1.67;;;;;;;5.19;81.39;99845.77;1844594;77;21017;-76
2022/10/20 08:51:22;;;;;;;2.83;1.67;;;;;;;5.20;81.66;99840.86;1823279;77;21013;-75
2022/10/20 08:53:54;;;;;;;2.05;1.80;;;;;;;5.20;81.93;99846.13;1814430;76;21025;-76
2022/10/20 08:56:24;;;;;;;3.58;2.00;;;;;;;5.20;81.66;99851.88;1791231;77;21129;-78
2022/10/20 08:58:51;;;;;;;2.55;1.60;;;;;;;5.18;81.31;99849.86;1827257;76;21068;-75
2022/10/20 09:01:34;;;;;;;2.72;1.70;;;;;;;5.24;81.20;99855.92;1823938;76;21049;-74
2022/10/20 09:04:03;;;;;;;2.37;1.82;;;;;;;5.26;81.14;99856.13;1828549;77;21050;-75
2022/10/20 09:06:31;;;;;;;2.45;1.77;;;;;;;5.19;81.16;99858.92;1834095;77;21085;-73
2022/10/20 09:08:59;;;;;;;3.15;2.12;;;;;;;5.15;81.61;99863.28;1806578;77;21240;-74
2022/10/20 09:11:31;;;;;;;3.17;2.67;;;;;;;5.13;81.76;99859.45;1820002;77;21358;-78
2022/10/20 09:13:59;;;;;;;2.98;2.30;;;;;;;5.16;81.86;99869.74;1825443;76;21049;-73
2022/10/20 09:16:36;;;;;;;4.22;2.35;;;;;;;5.31;81.92;99871.07;1835399;77;21045;-78
2022/10/20 09:18:59;;;;;;;4.05;2.83;;;;;;;5.36;81.90;99877.74;1834355;77;21026;-75
2022/10/20 09:21:26;;;;;;;3.85;2.55;;;;;;;5.36;81.91;99871.16;1812937;77;21265;-74
2022/10/20 09:23:55;;;;;;;3.05;2.20;;;;;;;5.39;81.71;99883.59;1812693;78;21051;-71
2022/10/20 09:26:35;;;;;;;2.92;2.15;;;;;;;5.41;81.47;99874.21;1810890;79;21009;-74
2022/10/20 09:29:15;;;;;;;3.20;2.52;;;;;;;5.48;81.28;99876.68;1801717;79;20993;-74
2022/10/20 09:31:52;;;;;;;4.10;2.40;;;;;;;5.49;81.22;99879.68;1807161;77;21052;-74
2022/10/20 09:34:26;;;;;;;5.17;2.20;;;;;;;5.46;81.08;99887.84;1812245;79;21180;-74
2022/10/20 09:37:11;;;;;;;3.60;2.72;;;;;;;5.44;81.30;99882.69;1812499;77;20993;-75
2022/10/20 09:39:53;;;;;;;3.45;2.37;;;;;;;5.42;81.35;99890.39;1809459;79;21033;-74
2022/10/20 09:42:36;;;;;;;2.92;2.25;;;;;;;5.48;80.76;99897.27;1801441;78;21047;-74
2022/10/20 09:45:16;;;;;;;7.45;2.42;;;;;;;5.56;80.82;99887.88;1805673;79;21627;-75
2022/10/20 09:47:45;;;;;;;4.12;2.33;;;;;;;5.56;80.89;99892.66;1806564;79;21144;-75
2022/10/20 09:50:29;;;;;;;2.52;2.12;;;;;;;5.50;80.92;99893.19;1782424;79;21010;-74
2022/10/20 09:52:58;;;;;;;3.20;2.33;;;;;;;5.46;81.04;99895.25;1804471;79;21044;-73
2022/10/20 09:55:32;;;;;;;2.52;1.95;;;;;;;5.55;80.93;99900.23;1799673;79;21072;-74
2022/10/20 09:58:02;;;;;;;3.75;2.10;;;;;;;5.66;80.69;99907.19;1806200;78;21004;-74
2022/10/20 10:00:41;;;;;;;3.92;2.47;;;;;;;5.63;80.71;99899.08;1794987;79;21156;-74
2022/10/20 10:03:20;;;;;;;3.70;2.30;;;;;;;5.59;80.78;99910.85;1809325;79;21508;-73
2022/10/20 10:05:58;;;;;;;3.50;2.08;;;;;;;5.55;80.96;99912.09;1804891;79;21006;-73
2022/10/20 10:08:32;;;;;;;5.17;2.35;;;;;;;5.59;80.92;99902.95;1801135;79;21500;-72
2022/10/20 10:11:02;;;;;;;5.33;2.67;;;;;;;5.74;80.72;99913.12;1807947;77;20974;-74
2022/10/20 10:13:34;;;;;;;3.25;2.20;;;;;;;5.75;80.71;99916.95;1801090;77;21009;-74
2022/10/20 10:16:06;;;;;;;3.20;2.72;;;;;;;5.75;81.08;99911.67;1816165;78;21323;-74
2022/10/20 10:18:34;;;;;;;3.10;2.10;;;;;;;5.80;80.82;99923.16;1818664;79;20989;-75
2022/10/20 10:21:08;;;;;;;2.83;1.70;;;;;;;5.83;80.34;99922.88;1813688;78;21726;-72
2022/10/20 10:23:55;;;;;;;2.87;1.95;;;;;;;5.98;80.17;99920.25;1815183;77;21025;-75
2022/10/20 10:26:48;;;;;;;4.35;2.40;;;;;;;6.11;79.60;99933.21;1808451;79;21476;-75
2022/10/20 10:29:27;;;;;;;4.37;2.10;;;;;;;6.14;79.37;99931.61;1811554;78;20942;-75
2022/10/20 10:32:04;;;;;;;2.62;2.27;;;;;;;6.18;79.30;99927.76;1804314;79;21005;-77
2022/10/20 10:34:59;;;;;;;3.55;1.90;;;;;;;6.24;78.96;99934.30;1812528;77;21052;-78
2022/10/20 10:37:28;;;;;;;4.35;2.00;;;;;;;6.39;78.61;99932.08;1812429;77;21032;-79
2022/10/20 10:39:54;;;;;;;1.90;1.80;;;;;;;6.59;78.26;99931.64;1811551;78;21076;-74
2022/10/20 10:42:49;;;;;;;2.33;1.85;;;;;;;6.64;77.53;99937.32;1741317;80;21611;-75
2022/10/20 10:45:32;;;;;;;4.85;2.00;;;;;;;6.68;77.50;99937.39;1737042;80;21073;-75
2022/10/20 10:48:10;;;;;;;3.15;1.85;;;;;;;6.83;76.86;99937.82;1769812;80;21019;-75
2022/10/20 10:50:51;;;;;;;1.92;1.62;;;;;;;6.97;76.78;99928.14;1811021;78;21100;-75
2022/10/20 10:53:49;;;;;;;3.12;1.80;;;;;;;7.19;75.75;99934.95;1810641;79;21212;-74
2022/10/20 10:56:54;;;;;;;4.05;1.55;;;;;;;7.61;75.47;99931.93;1812977;79;21060;-74
2022/10/20 10:59:35;;;;;;;2.35;1.90;;;;;;;7.89;74.21;99924.02;1778661;78;25091;-75
2022/10/20 11:02:23;;;;;;;2.20;2.00;;;;;;;8.14;73.54;99921.67;1806165;77;21547;-76
2022/10/20 11:04:59;;;;;;;2.77;1.70;;;;;;;8.28;72.41;99918.01;1812437;77;21562;-78
2022/10/20 11:07:31;;;;;;;2.47;1.72;;;;;;;8.31;71.59;99921.38;1812766;78;21154;-78
2022/10/20 11:10:05;;;;;;;3.10;1.70;;;;;;;8.23;71.84;99922.94;1816887;78;25539;-75
2022/10/20 11:12:43;;;;;;;2.83;1.82;;;;;;;8.11;71.74;99933.86;1813667;79;21060;-78
2022/10/20 11:15:39;;;;;;;2.87;2.00;;;;;;;7.93;71.64;99932.00;1809442;78;22070;-79
2022/10/20 11:18:30;;;;;;;3.70;1.75;;;;;;;7.82;72.09;99930.86;1785776;80;21611;-79
2022/10/20 11:21:22;;;;;;;2.60;1.80;;;;;;;7.77;72.51;99933.13;1815019;79;21079;-80
2022/10/20 11:23:54;;;;;;;4.62;1.72;;;;;;;7.64;73.05;99939.55;1815005;77;21029;-79
2022/10/20 11:26:34;;;;;;;2.05;1.67;;;;;;;7.55;73.31;99941.77;1838614;77;21024;-79
2022/10/20 11:29:05;;;;;;;2.08;1.70;;;;;;;7.48;73.04;99943.31;1832814;76;21046;-80
2022/10/20 11:32:08;;;;;;;3.08;1.60;;;;;;;7.40;73.78;99943.20;1822095;77;21033;-80
2022/10/20 11:35:02;;;;;;;3.85;1.70;;;;;;;7.35;74.32;99945.42;1843868;76;21894;-81
2022/10/20 11:38:11;;;;;;;5.75;2.10;;;;;;;7.52;74.55;99939.89;1808377;77;21049;-80
2022/10/20 11:40:45;;;;;;;4.22;2.80;;;;;;;7.61;74.95;99942.97;1850211;77;21045;-81
2022/10/20 11:43:26;;;;;;;3.22;2.70;;;;;;;7.76;75.00;99940.20;1832370;76;21430;-80
2022/10/20 11:46:04;;;;;;;4.95;2.52;;;;;;;7.84;74.64;99953.56;1846343;76;21498;-85
2022/10/20 11:48:36;;;;;;;3.45;2.95;;;;;;;7.83;74.28;99957.67;1816421;77;22607;-82
2022/10/20 11:51:31;;;;;;;4.70;2.58;;;;;;;7.79;74.93;99957.13;1828403;77;21018;-82
2022/10/20 11:54:32;;;;;;;2.47;1.90;;;;;;;7.81;74.84;99961.78;1832481;76;20922;-83
2022/10/20 11:57:41;;;;;;;3.47;2.30;;;;;;;7.86;74.70;99970.59;1831126;77;21021;-81
2022/10/20 12:00:22;;;;;;;3.25;2.08;;;;;;;7.75;74.74;99981.38;1778854;79;21081;-86
2022/10/20 12:03:19;;;;;;;2.20;1.98;;;;;;;7.58;74.87;99991.70;1755704;80;21141;-79
2022/10/20 12:06:15;;;;;;;5.12;2.40;;;;;;;7.43;74.89;99991.30;1760885;77;20955;-82
2022/10/20 12:08:55;;;;;;;2.27;1.60;;;;;;;7.25;75.47;100004.90;1770076;80;21053;-81
2022/10/20 12:11:58;;;;;;;2.65;1.55;;;;;;;7.18;75.95;100011.70;1804381;78;21041;-81